Time;durP1;ratioP1;P1;durP2;ratioP2;P2;SDS_P1;SDS_P2;PMS_P1;PMS_P2;Temp;Humidity;BMP_temperature;BMP_pressure;BME280_temperature;BME280_humidity;BME280_pressure;Samples;Min_cycle;Max_cycle;Signal;HPM_P1;HPM_P2
2023/06/17 00:01:22;;;;;;;6.53;4.38;;;;;;;-146.27;55.17;81894.06;5028857;28;20025;-68
2023/06/17 00:03:48;;;;;;;8.98;4.10;;;;;;;-146.27;54.61;81916.16;5030424;28;20044;-68
2023/06/17 00:06:13;;;;;;;9.68;4.40;;;;;;;-146.27;54.35;81932.22;5032676;28;20068;-68
2023/06/17 00:08:38;;;;;;;8.70;4.43;;;;;;;-146.27;54.90;81974.41;5032471;28;20104;-69
2023/06/17 00:11:04;;;;;;;10.40;4.50;;;;;;;-146.27;54.91;81934.25;5031875;28;20053;-69
2023/06/17 00:13:29;;;;;;;12.07;5.35;;;;;;;-146.27;55.48;81986.47;5030000;28;20026;-68
2023/06/17 00:15:59;;;;;;;6.85;4.78;;;;;;;-146.27;55.45;81954.31;5031895;28;20268;-68
2023/06/17 00:18:24;;;;;;;7.45;4.60;;;;;;;-146.27;55.95;81998.50;5033670;28;20029;-69
2023/06/17 00:20:53;;;;;;;6.63;4.38;;;;;;;-146.27;56.76;81990.47;5032766;28;20041;-68
2023/06/17 00:23:21;;;;;;;6.38;4.57;;;;;;;-146.27;57.09;81994.50;5030882;28;20493;-69
2023/06/17 00:25:48;;;;;;;7.93;4.53;;;;;;;-146.27;57.61;81982.44;5032787;28;20033;-69
2023/06/17 00:28:13;;;;;;;7.53;5.07;;;;;;;-146.27;57.79;82026.63;5031371;28;20041;-68
2023/06/17 00:30:39;;;;;;;9.43;5.10;;;;;;;-146.27;56.51;82054.75;5031779;28;20554;-69
2023/06/17 00:33:04;;;;;;;6.38;4.85;;;;;;;-146.27;58.09;82024.63;5031409;28;20504;-68
2023/06/17 00:35:29;;;;;;;7.07;5.20;;;;;;;-146.27;57.94;82038.69;5032881;28;20087;-69
2023/06/17 00:37:55;;;;;;;6.65;4.20;;;;;;;-146.27;58.81;82042.69;5033520;28;20021;-68
2023/06/17 00:40:21;;;;;;;9.57;4.53;;;;;;;-146.27;59.06;82054.75;5033129;28;20032;-68
2023/06/17 00:42:46;;;;;;;10.98;5.38;;;;;;;-146.27;59.57;82014.59;5031359;28;20061;-68
2023/06/17 00:45:11;;;;;;;8.15;5.13;;;;;;;-146.27;59.84;82066.81;5033916;28;20052;-69
2023/06/17 00:47:39;;;;;;;10.07;5.05;;;;;;;-146.27;60.31;82070.81;5032904;28;20507;-68
2023/06/17 00:50:08;;;;;;;12.43;5.15;;;;;;;-146.27;60.86;82090.91;5032383;28;20094;-68
2023/06/17 00:52:35;;;;;;;6.32;4.47;;;;;;;-146.27;61.13;82058.78;5032299;28;20021;-70
2023/06/17 00:55:00;;;;;;;8.73;5.00;;;;;;;-146.27;61.90;82084.88;5030675;28;20037;-69
2023/06/17 00:57:27;;;;;;;12.07;5.75;;;;;;;-146.27;62.12;82074.84;5030937;28;20079;-69
2023/06/17 00:59:53;;;;;;;6.78;5.10;;;;;;;-146.27;62.94;82113.00;5032755;28;20037;-68
2023/06/17 01:02:19;;;;;;;8.00;5.75;;;;;;;-146.27;62.82;82127.06;5030688;28;20484;-69
2023/06/17 01:04:48;;;;;;;10.25;5.85;;;;;;;-146.27;63.62;82115.00;5031158;28;20220;-68
2023/06/17 01:07:35;;;;;;;8.07;5.25;;;;;;;-146.27;63.96;82149.16;5030503;28;20033;-69
2023/06/17 01:10:41;;;;;;;6.25;5.20;;;;;;;-146.27;63.96;82147.16;5031601;28;20046;-69
2023/06/17 01:13:07;;;;;;;10.55;6.00;;;;;;;-146.27;64.43;82161.22;5031726;28;20434;-68
2023/06/17 01:15:34;;;;;;;7.10;5.78;;;;;;;-146.27;64.70;82171.25;5029647;28;20103;-68
2023/06/17 01:18:04;;;;;;;8.35;5.85;;;;;;;-146.27;64.96;82171.25;5028958;28;20022;-68
2023/06/17 01:20:32;;;;;;;9.27;6.03;;;;;;;-146.27;64.90;82171.25;5022136;28;20036;-68
2023/06/17 01:22:59;;;;;;;8.25;6.43;;;;;;;-146.27;65.46;82181.31;5021534;28;20022;-69
2023/06/17 01:25:29;;;;;;;8.73;5.68;;;;;;;-146.27;65.54;82187.31;5026229;28;20033;-69
2023/06/17 01:28:03;;;;;;;10.25;6.90;;;;;;;-146.27;65.77;82161.22;5012882;28;20024;-69
2023/06/17 01:30:29;;;;;;;12.43;6.72;;;;;;;-146.27;66.09;82165.22;5031132;28;20037;-70
2023/06/17 01:32:58;;;;;;;14.02;6.18;;;;;;;-146.27;66.25;82199.38;5029752;28;20026;-69
2023/06/17 01:35:31;;;;;;;10.35;6.88;;;;;;;-146.27;66.47;82185.31;5022571;28;20390;-68
2023/06/17 01:38:10;;;;;;;12.80;6.82;;;;;;;-146.27;66.15;82215.44;5031464;28;20487;-68
2023/06/17 01:40:40;;;;;;;9.60;6.32;;;;;;;-146.27;65.90;82195.38;5031049;28;20504;-69
2023/06/17 01:43:06;;;;;;;11.30;6.88;;;;;;;-146.27;66.04;82183.31;5028065;28;20033;-69
2023/06/17 01:45:32;;;;;;;11.93;7.53;;;;;;;-146.27;65.92;82213.44;5030288;28;20030;-69
2023/06/17 01:47:58;;;;;;;8.30;6.50;;;;;;;-146.27;66.41;82211.44;5031762;28;20499;-68
2023/06/17 01:50:24;;;;;;;10.52;6.57;;;;;;;-146.27;66.00;82209.44;5031816;28;20025;-68
2023/06/17 01:52:49;;;;;;;12.63;7.53;;;;;;;-146.27;65.39;82231.53;5030997;28;20029;-68
2023/06/17 01:55:17;;;;;;;10.40;7.20;;;;;;;-146.27;65.91;82231.53;5032193;28;20026;-68
2023/06/17 01:57:43;;;;;;;10.32;6.90;;;;;;;-146.27;65.31;82195.38;5030755;28;20559;-68
2023/06/17 02:00:11;;;;;;;11.13;6.82;;;;;;;-146.27;65.76;82265.66;5030711;28;20029;-67
2023/06/17 02:02:37;;;;;;;10.25;7.03;;;;;;;-146.27;65.49;82307.84;5028621;28;20041;-69
2023/06/17 02:05:02;;;;;;;13.13;7.63;;;;;;;-146.27;66.15;82301.81;5031014;28;20025;-68
2023/06/17 02:07:28;;;;;;;9.40;6.88;;;;;;;-146.27;66.72;82267.69;5029826;28;20086;-69
2023/06/17 02:09:53;;;;;;;16.30;7.53;;;;;;;-146.27;67.22;82281.75;5031131;28;20115;-69
2023/06/17 02:12:19;;;;;;;7.32;6.50;;;;;;;-146.27;67.55;82315.88;5029992;28;20037;-69
2023/06/17 02:14:44;;;;;;;15.95;7.30;;;;;;;-146.27;67.79;82305.84;5029915;28;20029;-69
2023/06/17 02:17:11;;;;;;;8.07;6.57;;;;;;;-146.27;67.92;82305.84;5026477;28;20061;-69
2023/06/17 02:19:37;;;;;;;10.18;6.65;;;;;;;-146.27;68.33;82321.91;5029999;28;20033;-67
2023/06/17 02:22:04;;;;;;;9.77;7.63;;;;;;;-146.27;68.70;82315.88;5025961;28;20029;-68
2023/06/17 02:24:30;;;;;;;11.93;8.02;;;;;;;-146.27;69.05;82327.94;5030240;28;20040;-68
2023/06/17 02:26:56;;;;;;;12.57;8.48;;;;;;;-146.27;69.10;82352.03;5029128;28;20025;-68
2023/06/17 02:29:21;;;;;;;12.02;9.07;;;;;;;-146.27;70.07;82333.97;5027898;28;20052;-68
2023/06/17 02:31:46;;;;;;;14.98;9.45;;;;;;;-146.27;70.07;82303.84;5023538;28;20021;-68
2023/06/17 02:34:12;;;;;;;12.25;9.52;;;;;;;-146.27;70.44;82335.97;5021388;28;20458;-69
2023/06/17 02:36:38;;;;;;;16.20;10.43;;;;;;;-146.27;70.36;82313.88;5023459;28;20362;-68
2023/06/17 02:39:05;;;;;;;14.02;9.48;;;;;;;-146.27;70.85;82368.13;5025905;28;20071;-69
2023/06/17 02:41:30;;;;;;;13.35;9.82;;;;;;;-146.27;71.14;82396.25;5028952;28;20037;-68
2023/06/17 02:43:56;;;;;;;53.70;12.85;;;;;;;-146.27;71.44;82392.22;5027310;28;20079;-68
2023/06/17 02:46:24;;;;;;;13.57;9.77;;;;;;;-146.27;71.62;82404.28;5029157;28;20090;-67
2023/06/17 02:48:49;;;;;;;16.48;10.38;;;;;;;-146.27;72.08;82390.22;5029118;28;20044;-68
2023/06/17 02:51:15;;;;;;;15.30;10.93;;;;;;;-146.27;71.94;82408.28;5029943;28;20025;-68
2023/06/17 02:53:41;;;;;;;15.52;10.95;;;;;;;-146.27;72.28;82420.34;5029057;28;20028;-67
2023/06/17 02:56:06;;;;;;;15.43;11.02;;;;;;;-146.27;73.13;82408.28;5029725;28;20068;-69
2023/06/17 02:58:32;;;;;;;19.95;12.00;;;;;;;-146.27;73.09;82356.06;5029206;28;20531;-67
2023/06/17 03:00:58;;;;;;;14.93;10.77;;;;;;;-146.27;72.60;82374.13;5030468;28;20024;-67
2023/06/17 03:03:33;;;;;;;16.92;11.77;;;;;;;-146.27;73.04;82410.31;5027692;28;20009;-69
2023/06/17 03:06:05;;;;;;;17.80;12.23;;;;;;;-146.27;73.48;82396.25;5030530;28;20501;-69
2023/06/17 03:08:32;;;;;;;17.33;11.57;;;;;;;-146.27;73.52;82398.25;5030252;28;20025;-70
2023/06/17 03:10:59;;;;;;;15.60;11.80;;;;;;;-146.27;73.47;82424.38;5028852;28;20041;-68
2023/06/17 03:13:25;;;;;;;17.52;11.80;;;;;;;-146.27;73.53;82428.38;5015598;28;20108;-69
2023/06/17 03:15:51;;;;;;;16.17;11.50;;;;;;;-146.27;73.91;82452.47;5029383;28;20029;-69
2023/06/17 03:18:16;;;;;;;17.40;11.93;;;;;;;-146.27;74.03;82458.50;5028918;28;20537;-69
2023/06/17 03:20:42;;;;;;;19.85;12.85;;;;;;;-146.27;74.44;82448.47;5029425;28;20414;-69
2023/06/17 03:23:08;;;;;;;18.55;13.27;;;;;;;-146.27;74.82;82468.56;5010557;28;20068;-68
2023/06/17 03:25:34;;;;;;;17.67;13.13;;;;;;;-146.27;75.21;82468.56;5030061;28;20030;-68
2023/06/17 03:28:02;;;;;;;18.83;13.60;;;;;;;-146.27;75.76;82476.59;5027988;28;20030;-70
2023/06/17 03:30:28;;;;;;;16.15;12.90;;;;;;;-146.27;75.92;82528.81;5024452;28;20682;-67
2023/06/17 03:32:57;;;;;;;18.85;11.35;;;;;;;-146.27;75.91;82480.59;5024520;28;20036;-69
2023/06/17 03:35:23;;;;;;;20.65;12.52;;;;;;;-146.27;75.77;82470.56;5024443;28;20100;-70
2023/06/17 03:37:49;;;;;;;18.73;12.95;;;;;;;-146.27;76.00;82468.56;5024568;28;20056;-68
2023/06/17 03:40:14;;;;;;;16.02;13.02;;;;;;;-146.27;76.01;82436.41;5029043;28;20040;-68
2023/06/17 03:42:40;;;;;;;17.05;12.18;;;;;;;-146.27;76.34;82414.31;5029775;28;20092;-69
2023/06/17 03:45:05;;;;;;;16.75;12.95;;;;;;;-146.27;76.66;82484.63;5028462;28;20029;-68
2023/06/17 03:47:31;;;;;;;18.60;13.40;;;;;;;-146.27;76.87;82490.66;5029658;28;20069;-68
2023/06/17 03:49:56;;;;;;;18.85;13.70;;;;;;;-146.27;77.42;82492.66;5028938;28;20401;-68
2023/06/17 03:52:21;;;;;;;18.20;13.98;;;;;;;-146.27;78.05;82456.50;5022908;28;20025;-68
2023/06/17 03:54:47;;;;;;;20.33;15.52;;;;;;;-146.27;78.52;82402.25;5022530;28;20030;-69
2023/06/17 03:57:12;;;;;;;20.27;13.98;;;;;;;-146.27;78.83;82460.53;5019646;28;20041;-69
2023/06/17 03:59:37;;;;;;;18.30;13.15;;;;;;;-146.27;78.35;82404.28;5028023;28;20116;-69
2023/06/17 04:02:04;;;;;;;20.88;14.48;;;;;;;-146.27;78.73;82452.47;5023787;28;20025;-69
2023/06/17 04:04:32;;;;;;;20.38;14.30;;;;;;;-146.27;79.22;82390.22;5027804;28;20538;-69
2023/06/17 04:06:57;;;;;;;22.20;14.75;;;;;;;-146.27;80.38;82412.31;5029332;28;20120;-69
2023/06/17 04:09:23;;;;;;;20.80;15.70;;;;;;;-146.27;81.16;82388.22;5028460;28;20116;-69
2023/06/17 04:11:48;;;;;;;24.67;16.48;;;;;;;-146.27;81.69;82384.19;5027462;28;20033;-69
2023/06/17 04:14:14;;;;;;;22.38;15.65;;;;;;;-146.27;81.98;82348.03;5029046;28;20025;-69
2023/06/17 04:16:41;;;;;;;21.38;15.07;;;;;;;-146.27;81.70;82364.09;5028393;28;20026;-68
2023/06/17 04:19:09;;;;;;;21.35;14.95;;;;;;;-146.27;81.26;82331.97;5028247;28;20029;-70
2023/06/17 04:21:35;;;;;;;20.92;15.48;;;;;;;-146.27;81.35;82331.97;5026713;28;20021;-71
2023/06/17 04:24:00;;;;;;;18.10;14.27;;;;;;;-146.27;81.71;82331.97;5027223;28;20033;-69
2023/06/17 04:26:27;;;;;;;22.65;16.00;;;;;;;-146.27;81.53;82309.88;5028855;28;20036;-68
2023/06/17 04:28:53;;;;;;;21.65;15.02;;;;;;;-146.27;82.00;82311.88;5028740;28;20036;-70
2023/06/17 04:31:18;;;;;;;19.80;15.98;;;;;;;-146.27;83.04;82311.88;5018115;28;20431;-68
2023/06/17 04:33:44;;;;;;;25.33;16.98;;;;;;;-146.27;83.04;82275.72;5029337;28;20502;-70
2023/06/17 04:36:09;;;;;;;19.38;15.95;;;;;;;-146.27;83.12;82255.63;5029564;28;20108;-69
2023/06/17 04:38:36;;;;;;;20.15;16.02;;;;;;;-146.27;83.42;82219.47;5027948;28;20060;-68
2023/06/17 04:41:04;;;;;;;24.42;16.15;;;;;;;-146.27;83.35;82245.59;5028115;28;20033;-69
2023/06/17 04:43:30;;;;;;;20.52;15.65;;;;;;;-146.27;83.04;82211.44;5028572;28;20021;-69
2023/06/17 04:45:56;;;;;;;24.13;15.95;;;;;;;-146.27;82.95;82179.28;5029450;28;20045;-68
2023/06/17 04:48:22;;;;;;;19.77;14.75;;;;;;;-146.27;82.03;82193.34;5023601;28;20056;-70
2023/06/17 04:50:48;;;;;;;17.83;14.70;;;;;;;-146.27;82.29;82129.06;5029866;28;20065;-69
2023/06/17 04:53:13;;;;;;;19.92;14.77;;;;;;;-146.27;82.55;82151.16;5026237;28;20030;-68
2023/06/17 04:55:39;;;;;;;19.98;15.20;;;;;;;-146.27;82.81;82102.97;5030528;28;20147;-69
2023/06/17 04:58:05;;;;;;;24.42;15.23;;;;;;;-146.27;83.33;82086.91;5027122;28;20104;-69
2023/06/17 05:00:30;;;;;;;18.42;15.95;;;;;;;-146.27;84.07;82066.81;5028717;28;20029;-69
2023/06/17 05:02:56;;;;;;;23.88;15.65;;;;;;;-146.27;84.48;82018.59;5031153;28;20439;-68
2023/06/17 05:05:22;;;;;;;19.15;14.85;;;;;;;-146.27;84.27;81982.44;5025327;28;20061;-69
2023/06/17 05:07:47;;;;;;;18.85;14.48;;;;;;;-146.27;84.29;81946.28;5030077;28;20064;-69
2023/06/17 05:10:14;;;;;;;16.90;14.07;;;;;;;-146.27;83.80;81910.13;5028170;28;20404;-69
2023/06/17 05:12:40;;;;;;;19.02;14.80;;;;;;;-146.27;83.77;81918.16;5026557;28;20034;-68
2023/06/17 05:15:06;;;;;;;19.25;14.30;;;;;;;-146.27;83.18;81873.97;5023038;28;20113;-70
2023/06/17 05:17:32;;;;;;;17.73;13.45;;;;;;;-146.27;83.04;81845.88;5022159;28;20061;-68
2023/06/17 05:19:57;;;;;;;15.70;13.25;;;;;;;-146.27;82.50;81882.00;5030358;28;20072;-69
2023/06/17 05:22:22;;;;;;;17.98;14.20;;;;;;;-146.27;82.42;81869.97;5025919;28;20477;-69
2023/06/17 05:24:48;;;;;;;18.20;12.82;;;;;;;-146.27;82.25;81859.94;5031152;28;20502;-69
2023/06/17 05:27:13;;;;;;;15.60;12.60;;;;;;;-146.27;82.45;81809.72;5032242;28;20048;-69
2023/06/17 05:29:38;;;;;;;15.35;12.80;;;;;;;-146.27;82.40;81847.88;5023512;28;20367;-70
2023/06/17 05:32:05;;;;;;;16.92;12.13;;;;;;;-146.27;81.83;81833.81;5016768;28;20128;-68
2023/06/17 05:34:30;;;;;;;21.50;12.93;;;;;;;-146.27;81.11;81793.66;5024935;28;20049;-69
2023/06/17 05:36:56;;;;;;;13.63;11.18;;;;;;;-146.27;80.08;81751.47;5032035;28;20469;-68
2023/06/17 05:39:21;;;;;;;14.73;10.45;;;;;;;-146.27;79.43;81737.41;5028015;28;20452;-70
2023/06/17 05:41:46;;;;;;;13.20;11.27;;;;;;;-146.27;79.21;81753.47;5021539;28;20025;-69
2023/06/17 05:44:12;;;;;;;12.25;10.07;;;;;;;-146.27;76.70;81721.34;5031204;28;20083;-69
2023/06/17 05:46:37;;;;;;;12.27;9.00;;;;;;;-146.27;77.37;81709.28;5025927;28;20116;-69
2023/06/17 05:49:02;;;;;;;12.18;8.27;;;;;;;-146.27;77.10;81687.19;5028457;28;20101;-70
2023/06/17 05:51:28;;;;;;;10.70;8.85;;;;;;;-146.27;74.83;81697.22;5027910;28;20477;-69
2023/06/17 05:53:54;;;;;;;10.95;8.30;;;;;;;-146.27;73.42;81653.06;5029202;28;20528;-69
2023/06/17 05:56:19;;;;;;;9.45;8.02;;;;;;;-146.27;71.78;81677.16;5030482;28;20025;-69
2023/06/17 05:58:46;;;;;;;12.32;9.15;;;;;;;-146.27;71.37;81612.88;5028542;28;20576;-69
2023/06/17 06:01:11;;;;;;;10.95;8.55;;;;;;;-146.27;71.63;81610.88;5019540;28;20103;-69
2023/06/17 06:03:37;;;;;;;15.20;8.88;;;;;;;-146.27;71.78;81618.91;5029706;28;20029;-70
2023/06/17 06:06:02;;;;;;;10.05;8.15;;;;;;;-146.27;73.67;81572.72;5029428;28;20028;-69
2023/06/17 06:08:27;;;;;;;13.05;8.48;;;;;;;-146.27;73.86;81592.78;5031215;28;20112;-67
2023/06/17 06:10:53;;;;;;;13.85;9.15;;;;;;;-146.27;73.32;81566.69;5028474;28;20037;-68
2023/06/17 06:13:18;;;;;;;11.43;8.65;;;;;;;-146.27;73.24;81548.59;5020625;28;20099;-69
2023/06/17 06:15:44;;;;;;;11.73;9.00;;;;;;;-146.27;73.68;81554.63;5023796;28;20079;-69
2023/06/17 06:18:09;;;;;;;11.57;8.13;;;;;;;-146.27;73.89;81496.41;5029611;28;20032;-69
2023/06/17 06:20:35;;;;;;;9.20;7.55;;;;;;;-146.27;70.21;81500.41;5029390;28;20422;-69
2023/06/17 06:23:00;;;;;;;10.80;7.80;;;;;;;-146.27;67.72;81500.41;5025027;28;20575;-69
2023/06/17 06:25:26;;;;;;;8.38;7.00;;;;;;;-146.27;68.40;81486.34;5028968;28;20474;-69
2023/06/17 06:27:52;;;;;;;10.48;7.65;;;;;;;-146.27;69.05;81512.47;5003821;28;20051;-70
2023/06/17 06:30:17;;;;;;;11.35;7.57;;;;;;;-146.27;67.68;81492.38;5019230;28;20029;-69
2023/06/17 06:32:43;;;;;;;9.15;7.40;;;;;;;-146.27;67.91;81464.25;5022715;28;20040;-68
2023/06/17 06:35:08;;;;;;;12.15;7.63;;;;;;;-146.27;66.72;81460.25;5022125;28;20032;-68
2023/06/17 06:37:34;;;;;;;9.00;7.25;;;;;;;-146.27;64.53;81404.00;5027059;28;20601;-68
2023/06/17 06:40:00;;;;;;;10.02;7.82;;;;;;;-146.27;66.95;81432.13;5029580;28;20367;-68
2023/06/17 06:42:25;;;;;;;9.07;6.22;;;;;;;-146.27;65.01;81432.13;5025821;28;20025;-69
2023/06/17 06:44:51;;;;;;;7.00;6.18;;;;;;;-146.27;63.29;81436.16;5029703;28;20040;-69
2023/06/17 06:47:16;;;;;;;11.82;6.97;;;;;;;-146.27;63.05;81416.06;5028310;28;20025;-68
2023/06/17 06:49:41;;;;;;;14.73;6.60;;;;;;;-146.27;62.72;81389.94;5029678;28;20663;-68
2023/06/17 06:52:07;;;;;;;7.45;5.68;;;;;;;-146.27;59.45;81307.63;5028281;28;20025;-68
2023/06/17 06:54:32;;;;;;;9.18;6.20;;;;;;;-146.27;59.20;81339.75;5029580;28;20086;-68
2023/06/17 06:56:57;;;;;;;8.60;6.07;;;;;;;-146.27;59.82;81321.66;5027482;28;20056;-68
2023/06/17 06:59:23;;;;;;;8.50;6.10;;;;;;;-146.27;58.43;81267.44;5024614;28;20519;-69
2023/06/17 07:01:48;;;;;;;11.95;6.30;;;;;;;-146.27;58.75;81257.41;5026901;28;20365;-67
2023/06/17 07:04:14;;;;;;;8.25;7.13;;;;;;;-146.27;60.44;81247.38;5027052;28;20534;-69
2023/06/17 07:06:40;;;;;;;12.55;8.60;;;;;;;-146.27;62.10;81187.13;5028159;28;20037;-69
2023/06/17 07:09:05;;;;;;;7.18;6.40;;;;;;;-146.27;56.18;81201.19;5028360;28;20215;-68
2023/06/17 07:11:30;;;;;;;11.10;7.30;;;;;;;-146.27;57.64;81155.00;5023182;28;20048;-67
2023/06/17 07:13:56;;;;;;;15.27;8.43;;;;;;;-146.27;59.12;81122.84;5027813;28;20026;-68
2023/06/17 07:16:21;;;;;;;10.50;8.43;;;;;;;-146.27;62.70;81086.72;5027260;28;20575;-67
2023/06/17 07:18:46;;;;;;;10.13;8.60;;;;;;;-146.27;60.29;81054.56;5027319;28;20353;-69
2023/06/17 07:21:12;;;;;;;11.43;8.00;;;;;;;-146.27;59.61;81060.59;5027358;28;20108;-68
2023/06/17 07:23:38;;;;;;;10.85;7.70;;;;;;;-146.27;58.90;81018.44;5029686;28;20021;-68
2023/06/17 07:26:03;;;;;;;10.75;6.57;;;;;;;-146.27;55.95;81058.59;5028370;28;20029;-68
2023/06/17 07:28:32;;;;;;;8.80;6.07;;;;;;;-146.27;53.99;81016.44;5027348;28;20346;-68
2023/06/17 07:30:57;;;;;;;9.27;6.10;;;;;;;-146.27;52.92;80966.22;5028583;28;20033;-68
2023/06/17 07:33:23;;;;;;;10.68;7.47;;;;;;;-146.27;52.33;80964.22;5027012;28;20526;-69
2023/06/17 07:35:48;;;;;;;12.25;5.63;;;;;;;-146.27;52.03;80914.00;5028821;28;20026;-68
2023/06/17 07:38:13;;;;;;;6.75;4.53;;;;;;;-146.27;51.15;80905.97;5028718;28;20037;-68
2023/06/17 07:40:39;;;;;;;11.48;5.43;;;;;;;-146.27;49.54;80863.81;5024749;28;20535;-70
2023/06/17 07:43:04;;;;;;;9.30;4.95;;;;;;;-146.27;49.86;80946.13;5024035;28;20346;-70
2023/06/17 07:45:30;;;;;;;6.22;4.55;;;;;;;-146.27;50.10;80905.97;5025560;28;20034;-67
2023/06/17 07:47:56;;;;;;;9.73;4.97;;;;;;;-146.27;46.44;80859.78;5028710;28;20033;-67
2023/06/17 07:50:21;;;;;;;6.68;4.45;;;;;;;-146.27;46.07;80843.72;5025682;28;20037;-68
2023/06/17 07:52:46;;;;;;;4.63;4.13;;;;;;;-146.27;45.14;80843.72;5028345;28;20029;-71
2023/06/17 07:55:12;;;;;;;6.22;3.58;;;;;;;-146.27;45.45;80785.50;5018621;28;20468;-68
2023/06/17 07:57:37;;;;;;;9.20;4.70;;;;;;;-146.27;45.08;80717.22;5024919;28;20118;-75
2023/06/17 08:00:09;;;;;;;5.50;4.15;;;;;;;-146.27;45.40;80729.28;5028853;28;20025;-72
2023/06/17 08:02:34;;;;;;;4.40;3.67;;;;;;;-146.27;44.64;80695.13;5027453;28;20021;-69
2023/06/17 08:05:00;;;;;;;10.30;3.85;;;;;;;-146.27;44.59;80665.03;5018570;28;20045;-68
2023/06/17 08:07:26;;;;;;;6.80;4.80;;;;;;;-146.27;42.86;80648.97;5017619;28;20092;-69
2023/06/17 08:09:52;;;;;;;5.65;4.15;;;;;;;-146.27;42.66;80612.81;5018211;28;20045;-69
2023/06/17 08:12:17;;;;;;;11.40;3.97;;;;;;;-146.27;43.09;80576.66;5025111;28;20039;-68
2023/06/17 08:14:43;;;;;;;8.50;4.53;;;;;;;-146.27;42.68;80548.56;5027558;28;20594;-68
2023/06/17 08:17:08;;;;;;;5.80;3.63;;;;;;;-146.27;41.90;80584.69;5016658;28;20164;-68
2023/06/17 08:19:33;;;;;;;4.97;3.47;;;;;;;-146.27;41.11;80520.44;5026356;28;20385;-68
2023/06/17 08:21:59;;;;;;;5.88;3.47;;;;;;;-146.27;39.39;80442.16;5026803;28;20083;-71
2023/06/17 08:24:25;;;;;;;11.07;3.75;;;;;;;-146.27;41.35;80442.16;5030148;28;20029;-69
2023/06/17 08:26:52;;;;;;;7.45;3.45;;;;;;;-146.27;40.95;80387.94;5031552;28;20436;-70
2023/06/17 08:29:18;;;;;;;8.48;3.58;;;;;;;-146.27;39.35;80347.78;5033547;28;20021;-69
2023/06/17 08:31:48;;;;;;;3.30;3.00;;;;;;;-146.27;39.03;80305.63;5029837;28;20033;-69
2023/06/17 08:34:14;;;;;;;7.95;3.30;;;;;;;-146.27;39.40;80319.66;5027792;28;20063;-69
2023/06/17 08:36:43;;;;;;;3.38;2.88;;;;;;;-146.27;39.19;80303.59;5029611;28;20053;-70
2023/06/17 08:39:10;;;;;;;6.90;3.45;;;;;;;-146.27;39.40;80287.53;5032674;28;20472;-74
2023/06/17 08:41:41;;;;;;;3.58;2.85;;;;;;;-146.27;38.47;80259.44;5026714;28;20037;-73
2023/06/17 08:44:11;;;;;;;6.15;3.22;;;;;;;-146.27;38.11;80243.38;5028892;28;20037;-73
2023/06/17 08:46:38;;;;;;;5.95;3.10;;;;;;;-146.27;39.06;80175.13;5029820;28;20029;-72
2023/06/17 08:49:03;;;;;;;4.57;3.42;;;;;;;-146.27;37.19;80143.00;5027117;28;20029;-73
2023/06/17 08:51:29;;;;;;;8.75;3.45;;;;;;;-146.27;37.20;80110.88;5032816;28;20027;-72
2023/06/17 08:53:55;;;;;;;6.10;3.00;;;;;;;-146.27;36.76;80100.81;5030908;28;20029;-72
2023/06/17 08:56:20;;;;;;;4.38;3.25;;;;;;;-146.27;37.27;80016.50;5032677;28;20033;-72
2023/06/17 08:58:47;;;;;;;4.57;3.50;;;;;;;-146.27;36.65;80038.59;5032647;28;20029;-71
2023/06/17 09:01:13;;;;;;;5.65;3.83;;;;;;;-146.27;37.40;79954.28;5031474;28;20602;-72
2023/06/17 09:03:41;;;;;;;3.30;3.00;;;;;;;-146.27;38.01;79972.34;5026357;28;20063;-72
2023/06/17 09:06:23;;;;;;;6.78;3.25;;;;;;;-146.27;36.05;79914.13;5030863;28;20030;-73
2023/06/17 09:08:52;;;;;;;3.10;2.80;;;;;;;-146.27;35.07;79926.16;5024235;28;20563;-72
2023/06/17 09:11:26;;;;;;;8.88;3.10;;;;;;;-146.27;34.80;79902.06;5029157;28;20545;-72
2023/06/17 09:13:52;;;;;;;6.53;3.50;;;;;;;-146.27;35.65;79859.91;5026238;28;20510;-72
2023/06/17 09:16:24;;;;;;;4.10;2.85;;;;;;;-146.27;35.37;79801.69;5026705;28;20025;-73
2023/06/17 09:18:53;;;;;;;5.35;3.20;;;;;;;-146.27;34.76;79797.69;5027863;28;20578;-73
2023/06/17 09:21:19;;;;;;;13.93;3.50;;;;;;;-146.27;34.96;79757.53;5031058;28;20032;-73
2023/06/17 09:24:01;;;;;;;3.17;2.88;;;;;;;-146.27;34.72;79717.38;5031279;28;20485;-73
2023/06/17 09:26:31;;;;;;;4.68;2.83;;;;;;;-146.27;34.99;79653.16;5028823;28;20033;-72
2023/06/17 09:29:01;;;;;;;5.28;2.70;;;;;;;-146.27;34.68;79639.09;5022818;28;20124;-75
2023/06/17 09:31:28;;;;;;;7.03;2.72;;;;;;;-146.27;34.07;79602.97;5026984;28;20029;-70
2023/06/17 09:33:54;;;;;;;5.38;3.20;;;;;;;-146.27;33.68;79584.88;5030102;28;20037;-73
2023/06/17 09:36:21;;;;;;;5.25;2.78;;;;;;;-146.27;33.56;79584.88;5031150;28;20370;-74
2023/06/17 09:38:47;;;;;;;4.72;2.85;;;;;;;-146.27;34.59;79548.75;5028885;28;20052;-73
2023/06/17 09:41:18;;;;;;;7.70;3.40;;;;;;;-146.27;35.59;79470.47;5028485;28;20029;-73
2023/06/17 09:43:50;;;;;;;6.85;3.58;;;;;;;-146.27;34.76;79410.25;5018925;28;20160;-73
2023/06/17 09:46:24;;;;;;;5.78;2.78;;;;;;;-146.27;33.32;79458.44;5031907;28;20025;-73
2023/06/17 09:48:51;;;;;;;5.05;3.13;;;;;;;-146.27;33.92;79478.50;5029012;28;20041;-72
2023/06/17 09:51:21;;;;;;;3.28;2.95;;;;;;;-146.27;34.16;79448.38;5032194;28;20029;-73
2023/06/17 09:53:49;;;;;;;6.65;3.15;;;;;;;-146.27;34.99;79410.25;5029100;28;20138;-73
2023/06/17 09:56:15;;;;;;;6.50;3.15;;;;;;;-146.27;34.46;79323.94;5028915;28;20033;-73
2023/06/17 09:58:42;;;;;;;7.13;3.63;;;;;;;-146.27;33.65;79265.72;5029029;28;20048;-73
2023/06/17 10:01:09;;;;;;;3.85;2.85;;;;;;;-146.27;33.23;79161.34;5015547;28;20040;-73
2023/06/17 10:03:37;;;;;;;6.40;3.22;;;;;;;-146.27;32.70;79135.25;5027610;28;20044;-72
2023/06/17 10:06:08;;;;;;;3.97;3.13;;;;;;;-146.27;33.13;79129.25;5031416;28;20033;-73
2023/06/17 10:08:36;;;;;;;4.05;2.55;;;;;;;-146.27;33.73;79038.91;5031517;28;20041;-73
2023/06/17 10:11:01;;;;;;;7.28;3.10;;;;;;;-146.27;33.40;78950.59;5030777;28;20052;-73
2023/06/17 10:13:30;;;;;;;9.30;3.00;;;;;;;-146.27;32.92;78900.44;5027585;28;20052;-73
2023/06/17 10:15:58;;;;;;;4.95;2.80;;;;;;;-146.27;32.07;78886.38;5031327;28;20021;-73
2023/06/17 10:18:25;;;;;;;5.38;3.28;;;;;;;-146.27;32.03;78786.03;5029692;28;20021;-73
2023/06/17 10:20:52;;;;;;;4.10;3.00;;;;;;;-146.27;32.51;78749.91;5029244;28;20128;-73
2023/06/17 10:23:20;;;;;;;4.97;2.90;;;;;;;-146.27;32.17;78665.59;5029518;28;20068;-72
2023/06/17 10:25:46;;;;;;;11.48;3.13;;;;;;;-146.27;32.17;78617.44;5035836;28;20060;-73
2023/06/17 10:28:14;;;;;;;4.63;3.08;;;;;;;-146.27;31.80;78593.34;5030502;28;20567;-73
2023/06/17 10:30:43;;;;;;;9.57;3.10;;;;;;;-146.27;31.63;78487.00;5030196;28;20141;-73
2023/06/17 10:33:08;;;;;;;7.43;3.05;;;;;;;-146.27;31.56;78404.72;5029511;28;20114;-72
2023/06/17 10:35:46;;;;;;;10.55;2.95;;;;;;;-146.27;31.24;78296.34;5028486;28;20060;-72
2023/06/17 10:38:28;;;;;;;4.90;2.75;;;;;;;-146.27;29.84;78302.38;5029402;28;20025;-73
2023/06/17 10:40:54;;;;;;;4.47;2.72;;;;;;;-146.27;30.52;78179.97;5027041;28;20029;-73
2023/06/17 10:43:20;;;;;;;3.55;3.10;;;;;;;-146.27;30.13;78304.38;5026844;28;20423;-72
2023/06/17 10:45:56;;;;;;;4.32;3.20;;;;;;;-146.27;31.09;78284.31;5028083;28;20124;-73
2023/06/17 10:48:30;;;;;;;5.70;3.53;;;;;;;-146.27;31.22;78181.97;5027109;28;20092;-73
2023/06/17 10:51:17;;;;;;;8.25;2.80;;;;;;;-146.27;30.20;78274.28;5026563;28;20469;-72
2023/06/17 10:53:49;;;;;;;4.60;3.10;;;;;;;-146.27;30.41;78212.06;5027567;28;20445;-73
2023/06/17 10:56:15;;;;;;;10.93;3.30;;;;;;;-146.27;30.79;78187.97;5029646;28;20053;-73
2023/06/17 10:58:47;;;;;;;7.30;3.40;;;;;;;-146.27;31.16;78045.50;5027341;28;20504;-72
2023/06/17 11:01:13;;;;;;;6.55;2.92;;;;;;;-146.27;30.60;78011.41;5024656;28;20041;-73
2023/06/17 11:03:40;;;;;;;7.05;3.03;;;;;;;-146.27;29.96;77979.28;5017312;28;20469;-73
2023/06/17 11:06:07;;;;;;;3.65;3.03;;;;;;;-146.27;31.54;77876.97;5027633;28;20628;-72
2023/06/17 11:08:34;;;;;;;3.53;2.78;;;;;;;-146.27;30.79;77752.56;5026627;28;20506;-73
2023/06/17 11:11:10;;;;;;;4.30;3.20;;;;;;;-146.27;31.16;77630.16;5029031;28;20116;-73